Love Boat — OT3861 — position and weather

sailwx.info

Track history (hours):
 
Tides and Currents Weather Stations Pressure Air Temp Water Temp Dewpoint Dewpoint Depression Visibility Wind Speed Wind Dir Waves Ship Positions

Love Boat

Last reported at 2014-Oct-20 12:33 UTC. Time now 2014-Oct-20 13:10 UTC.
Position N 51°55' E 004°11'.

Length 110 m; draft 3 m.

Type: Ship. MMSI: 205386190.

Date/timePositionNaut miles runAvg speedWind from/ knotsBaromVisibWave heightAir tempDewpointWater temp
2014-Oct-20 12:33N 51°55' E 004°11'5 5.0
2014-Oct-20 11:33N 51°56' E 004°03'0 0.0
2014-Oct-20 10:33N 51°56' E 004°03'0 0.0
2014-Oct-20 09:33N 51°56' E 004°03'0 0.0
2014-Oct-20 08:33N 51°56' E 004°03'0 0.0
2014-Oct-20 07:33N 51°56' E 004°03'0 0.0
2014-Oct-20 06:33N 51°56' E 004°03'0 0.0
2014-Oct-20 05:33N 51°56' E 004°03'0 0.0
2014-Oct-20 04:33N 51°56' E 004°03'0 0.4
2014-Oct-20 03:33N 51°56' E 004°02'0 0.0
2014-Oct-20 02:33N 51°56' E 004°02'0 0.0
2014-Oct-20 01:33N 51°56' E 004°02'0 0.0
2014-Oct-20 00:33N 51°56' E 004°02'0 0.0
2014-Oct-19 23:33N 51°56' E 004°02'0 0.0
2014-Oct-19 22:33N 51°56' E 004°02'0 0.0
2014-Oct-19 21:33N 51°56' E 004°02'0 0.0
2014-Oct-19 20:33N 51°56' E 004°02'1 0.6
2014-Oct-19 19:33N 51°56' E 004°03'0 0.0
2014-Oct-19 18:33N 51°56' E 004°03'0 0.0
2014-Oct-19 17:33N 51°56' E 004°03'0 0.0
2014-Oct-19 16:33N 51°56' E 004°03'0 0.0
2014-Oct-19 15:33N 51°56' E 004°03'0 0.0
2014-Oct-19 14:33N 51°56' E 004°03'0 0.0
2014-Oct-19 13:33N 51°56' E 004°03'0 0.0
2014-Oct-19 12:33N 51°56' E 004°03'0 0.0
2014-Oct-19 11:33N 51°56' E 004°03'0 0.0
2014-Oct-19 10:33N 51°56' E 004°03'0 0.0
2014-Oct-19 09:33N 51°56' E 004°03'0 0.0
2014-Oct-19 08:33N 51°56' E 004°03'0 0.0
2014-Oct-19 07:33N 51°56' E 004°03'0 0.0
2014-Oct-19 06:33N 51°56' E 004°03'0 0.0
2014-Oct-19 05:33N 51°56' E 004°03'0 0.0
2014-Oct-19 04:33N 51°56' E 004°03'0 0.0
2014-Oct-19 03:33N 51°56' E 004°03'0 0.0
2014-Oct-19 02:33N 51°56' E 004°03'0 0.0
2014-Oct-19 01:33N 51°56' E 004°03'0 0.0
2014-Oct-19 00:33N 51°56' E 004°03'0 0.0
2014-Oct-18 23:33N 51°56' E 004°03'0 0.0
2014-Oct-18 22:33N 51°56' E 004°03'0 0.0
2014-Oct-18 21:33N 51°56' E 004°03'0 0.0
2014-Oct-18 20:33N 51°56' E 004°03'0 0.0
2014-Oct-18 19:33N 51°56' E 004°03'0 0.0
2014-Oct-18 18:33N 51°56' E 004°03'0 0.0
2014-Oct-18 17:33N 51°56' E 004°03'0 0.0
2014-Oct-18 16:33N 51°56' E 004°03'0 0.0
2014-Oct-18 15:33N 51°56' E 004°03'0 0.0
2014-Oct-18 14:33N 51°56' E 004°03'0 0.0
2014-Oct-18 13:33N 51°56' E 004°03'0 0.0
2014-Oct-18 12:33N 51°56' E 004°03'0 0.0
2014-Oct-18 11:33N 51°56' E 004°03'2 2.1
2014-Oct-18 10:33N 51°56' E 004°07'6 6.5
2014-Oct-18 09:33N 51°52' E 004°15'6 6.4
2014-Oct-18 08:33N 51°51' E 004°25'7 7.3
2014-Oct-18 07:33N 51°48' E 004°36'6 6.1
2014-Oct-18 06:33N 51°42' E 004°35'6 5.6
2014-Oct-18 05:30N 51°42' E 004°25'0 0.2
2014-Oct-18 04:31N 51°42' E 004°25'0 0.0
2014-Oct-18 03:33N 51°42' E 004°25'0 0.0
2014-Oct-18 02:25N 51°42' E 004°25'0 0.0
2014-Oct-18 01:32N 51°42' E 004°25'0 0.0
2014-Oct-18 00:33N 51°42' E 004°25'0 0.0
2014-Oct-17 23:33N 51°42' E 004°25'0 0.0
2014-Oct-17 22:32N 51°42' E 004°25'0 0.0
2014-Oct-17 21:32N 51°42' E 004°25'0 0.0
2014-Oct-17 20:32N 51°42' E 004°25'0 0.0
2014-Oct-17 19:33N 51°42' E 004°25'0 0.0
2014-Oct-17 18:32N 51°42' E 004°25'0 0.0
2014-Oct-17 17:33N 51°42' E 004°25'0 0.0
2014-Oct-17 16:33N 51°42' E 004°25'0 0.0
2014-Oct-17 15:33N 51°42' E 004°25'0 0.0
2014-Oct-17 14:32N 51°42' E 004°25'0 0.0
2014-Oct-17 13:31N 51°42' E 004°25'0 0.0
2014-Oct-17 12:33N 51°42' E 004°25'0 0.0
2014-Oct-17 11:33N 51°42' E 004°25'1 0.7
2014-Oct-17 10:25N 51°41' E 004°24'5 5.1
2014-Oct-17 09:31N 51°39' E 004°18'5 5.1
2014-Oct-17 08:33N 51°40' E 004°10'2 1.4
2014-Oct-17 07:19N 51°40' E 004°07'4 5.7
2014-Oct-17 06:33N 51°37' E 004°02'4 3.7
2014-Oct-17 05:33N 51°34' E 003°58'4 4.3
2014-Oct-17 04:33N 51°30' E 004°00'2 1.8
2014-Oct-17 03:33N 51°28' E 004°00'0 0.0
2014-Oct-17 02:33N 51°28' E 004°00'0 0.0
2014-Oct-17 01:33N 51°28' E 004°00'0 0.0
2014-Oct-17 00:33N 51°28' E 004°00'0 0.0
2014-Oct-16 23:33N 51°28' E 004°00'0 0.0
2014-Oct-16 22:33N 51°28' E 004°00'0 0.0
2014-Oct-16 21:33N 51°28' E 004°00'0 0.0
2014-Oct-16 20:33N 51°28' E 004°00'0 0.0
2014-Oct-16 19:33N 51°28' E 004°00'1 1.5
2014-Oct-16 18:33N 51°26' E 004°01'5 5.1
2014-Oct-16 17:29N 51°23' E 003°54'6 6.8
2014-Oct-16 16:33N 51°24' E 003°44'3 3.0
2014-Oct-16 15:33N 51°27' E 003°44'0 0.0
2014-Oct-16 14:33N 51°27' E 003°44'0 0.0
2014-Oct-16 13:33N 51°27' E 003°44'0 0.0
2014-Oct-16 12:33N 51°27' E 003°44'0 0.0
2014-Oct-16 11:33N 51°27' E 003°44'0 0.0
2014-Oct-16 10:33N 51°27' E 003°44'0 0.0
2014-Oct-16 09:33N 51°27' E 003°44'0 0.0
2014-Oct-16 08:33N 51°27' E 003°44'0 0.0
2014-Oct-16 07:33N 51°27' E 003°44'0 0.0
2014-Oct-16 06:33N 51°27' E 003°44'0 0.0
2014-Oct-16 05:33N 51°27' E 003°44'0 0.0
2014-Oct-16 04:33N 51°27' E 003°44'0 0.0
2014-Oct-16 03:33N 51°27' E 003°44'0 0.0
2014-Oct-16 02:33N 51°27' E 003°44'0 0.0
2014-Oct-16 01:33N 51°27' E 003°44'0 0.0
2014-Oct-16 00:33N 51°27' E 003°44'0 0.0
2014-Oct-15 23:33N 51°27' E 003°44'0 0.0
2014-Oct-15 22:33N 51°27' E 003°44'0 0.0
2014-Oct-15 21:33N 51°27' E 003°44'0 0.0
2014-Oct-15 20:33N 51°27' E 003°44'0 0.0
2014-Oct-15 19:33N 51°27' E 003°44'0 0.1
2014-Oct-15 18:33N 51°27' E 003°44'4 4.1
2014-Oct-15 17:33N 51°23' E 003°43'5 5.1
2014-Oct-15 16:34N 51°20' E 003°49'6 6.3
2014-Oct-15 15:33N 51°14' E 003°48'5 5.0
2014-Oct-15 14:33N 51°09' E 003°48'0 0.0
2014-Oct-15 13:33N 51°09' E 003°48'0 0.0
2014-Oct-15 12:34N 51°09' E 003°48'0 0.1
2014-Oct-15 11:34N 51°09' E 003°48'0 0.0
2014-Oct-15 10:33N 51°09' E 003°48'0 0.1
2014-Oct-15 09:33N 51°09' E 003°48'0 0.0
2014-Oct-15 08:21N 51°09' E 003°48'0 0.0
2014-Oct-15 07:29N 51°09' E 003°48'0 0.2
2014-Oct-15 06:33N 51°09' E 003°48'0 0.0
2014-Oct-15 05:34N 51°09' E 003°48'0 0.0
2014-Oct-15 04:33N 51°09' E 003°48'0 0.0
2014-Oct-15 03:34N 51°09' E 003°48'0 0.0
2014-Oct-15 02:34N 51°09' E 003°48'0 0.0
2014-Oct-15 01:34N 51°09' E 003°48'0 0.0
2014-Oct-15 00:33N 51°09' E 003°48'0 0.0
2014-Oct-14 23:33N 51°09' E 003°48'0 0.0
2014-Oct-14 22:33N 51°09' E 003°48'0 0.0
2014-Oct-14 21:33N 51°09' E 003°48'0 0.0
2014-Oct-14 20:34N 51°09' E 003°48'0 0.0
2014-Oct-14 19:34N 51°09' E 003°48'0 0.0
2014-Oct-14 18:34N 51°09' E 003°48'0 0.0
2014-Oct-14 17:34N 51°09' E 003°48'0 0.0
2014-Oct-14 16:34N 51°09' E 003°48'0 0.0
2014-Oct-14 15:34N 51°09' E 003°48'0 0.0
2014-Oct-14 14:33N 51°09' E 003°48'0 0.0
2014-Oct-14 13:34N 51°09' E 003°48'0 0.0
2014-Oct-14 12:33N 51°09' E 003°48'0 0.0
2014-Oct-14 11:34N 51°09' E 003°48'0 0.0
2014-Oct-14 10:33N 51°09' E 003°48'0 0.0
2014-Oct-14 09:33N 51°09' E 003°48'0 0.0
2014-Oct-14 08:34N 51°09' E 003°48'0 0.0
2014-Oct-14 07:34N 51°09' E 003°48'0 0.0
2014-Oct-14 06:34N 51°09' E 003°48'0 0.0
2014-Oct-14 05:33N 51°09' E 003°48'0 0.0
2014-Oct-14 04:33N 51°09' E 003°48'0 0.0
2014-Oct-14 03:33N 51°09' E 003°48'0 0.0
2014-Oct-14 02:33N 51°09' E 003°48'0 0.0
2014-Oct-14 01:33N 51°09' E 003°48'0 0.0
2014-Oct-14 00:33N 51°09' E 003°48'0 0.0
2014-Oct-13 23:33N 51°09' E 003°48'0 0.0
2014-Oct-13 22:33N 51°09' E 003°48'0 0.0
2014-Oct-13 21:33N 51°09' E 003°48'0 0.0
2014-Oct-13 20:34N 51°09' E 003°48'0 0.0
2014-Oct-13 19:34N 51°09' E 003°48'0 0.0
2014-Oct-13 18:33N 51°09' E 003°48'0 0.0
2014-Oct-13 17:33N 51°09' E 003°48'0 0.0
2014-Oct-13 16:33N 51°09' E 003°48'0 0.0
2014-Oct-13 15:33N 51°09' E 003°48'0 0.0
2014-Oct-13 14:34N 51°09' E 003°48'0 0.0
2014-Oct-13 13:33N 51°09' E 003°48'0 0.1
2014-Oct-13 12:33N 51°09' E 003°47'3 2.7
2014-Oct-13 11:33N 51°11' E 003°48'6 5.9
2014-Oct-13 10:30N 51°17' E 003°50'2 2.4
2014-Oct-13 09:31N 51°20' E 003°49'6 5.8
2014-Oct-13 08:33N 51°23' E 003°56'5 5.1
2014-Oct-13 07:33N 51°27' E 004°01'4 4.4
2014-Oct-13 06:33N 51°32' E 004°00'6 5.1
2014-Oct-13 05:25N 51°37' E 004°03'5 5.2
2014-Oct-13 04:31N 51°40' E 004°10'1 0.7
2014-Oct-13 03:33N 51°40' E 004°11'0 0.0
2014-Oct-13 02:33N 51°40' E 004°11'0 0.0
2014-Oct-13 01:32N 51°40' E 004°11'0 0.0
2014-Oct-13 00:26N 51°40' E 004°11'1 1.3
2014-Oct-12 23:33N 51°39' E 004°12'6 6.3
2014-Oct-12 22:31N 51°40' E 004°23'3 3.4
2014-Oct-12 21:31N 51°42' E 004°28'6 6.7
2014-Oct-12 20:33N 51°43' E 004°38'7 6.5
2014-Oct-12 19:33N 51°47' E 004°46'7 6.9
2014-Oct-12 18:33N 51°50' E 004°56'7 7.1
2014-Oct-12 17:33N 51°49' E 005°07'8 7.7
2014-Oct-12 16:33N 51°49' E 005°20'7 7.2
2014-Oct-12 15:33N 51°53' E 005°29'9 8.2
2014-Oct-12 14:24N 51°53' E 005°44'47 5.9
2014-Oct-12 06:30N 51°22' E 006°40'6 6.7
2014-Oct-12 05:33N 51°16' E 006°42'5 5.4
2014-Oct-12 04:33N 51°11' E 006°45'5 4.8
2014-Oct-12 03:33N 51°08' E 006°51'14 6.8
2014-Oct-12 01:33N 50°55' E 006°58'  
Track history (hours):
 
Tides and Currents Weather Stations Pressure Air Temp Water Temp Dewpoint Dewpoint Depression Visibility Wind Speed Wind Dir Waves Ship Positions

Love Boat

Last reported at 2014-Oct-20 12:33 UTC. Time now 2014-Oct-20 13:10 UTC.
Position N 51°55' E 004°11'.

Length 110 m; draft 3 m.

Type: Ship. MMSI: 205386190.

Date/timePositionNaut miles runAvg speedWind from/ knotsBaromVisibWave heightAir tempDewpointWater temp
2014-Oct-20 12:33N 51°55' E 004°11'5 5.0
2014-Oct-20 11:33N 51°56' E 004°03'0 0.0
2014-Oct-20 10:33N 51°56' E 004°03'0 0.0
2014-Oct-20 09:33N 51°56' E 004°03'0 0.0
2014-Oct-20 08:33N 51°56' E 004°03'0 0.0
2014-Oct-20 07:33N 51°56' E 004°03'0 0.0
2014-Oct-20 06:33N 51°56' E 004°03'0 0.0
2014-Oct-20 05:33N 51°56' E 004°03'0 0.0
2014-Oct-20 04:33N 51°56' E 004°03'0 0.4
2014-Oct-20 03:33N 51°56' E 004°02'0 0.0
2014-Oct-20 02:33N 51°56' E 004°02'0 0.0
2014-Oct-20 01:33N 51°56' E 004°02'0 0.0
2014-Oct-20 00:33N 51°56' E 004°02'0 0.0
2014-Oct-19 23:33N 51°56' E 004°02'0 0.0
2014-Oct-19 22:33N 51°56' E 004°02'0 0.0
2014-Oct-19 21:33N 51°56' E 004°02'0 0.0
2014-Oct-19 20:33N 51°56' E 004°02'1 0.6
2014-Oct-19 19:33N 51°56' E 004°03'0 0.0
2014-Oct-19 18:33N 51°56' E 004°03'0 0.0
2014-Oct-19 17:33N 51°56' E 004°03'0 0.0
2014-Oct-19 16:33N 51°56' E 004°03'0 0.0
2014-Oct-19 15:33N 51°56' E 004°03'0 0.0
2014-Oct-19 14:33N 51°56' E 004°03'0 0.0
2014-Oct-19 13:33N 51°56' E 004°03'0 0.0
2014-Oct-19 12:33N 51°56' E 004°03'0 0.0
2014-Oct-19 11:33N 51°56' E 004°03'0 0.0
2014-Oct-19 10:33N 51°56' E 004°03'0 0.0
2014-Oct-19 09:33N 51°56' E 004°03'0 0.0
2014-Oct-19 08:33N 51°56' E 004°03'0 0.0
2014-Oct-19 07:33N 51°56' E 004°03'0 0.0
2014-Oct-19 06:33N 51°56' E 004°03'0 0.0
2014-Oct-19 05:33N 51°56' E 004°03'0 0.0
2014-Oct-19 04:33N 51°56' E 004°03'0 0.0
2014-Oct-19 03:33N 51°56' E 004°03'0 0.0
2014-Oct-19 02:33N 51°56' E 004°03'0 0.0
2014-Oct-19 01:33N 51°56' E 004°03'0 0.0
2014-Oct-19 00:33N 51°56' E 004°03'0 0.0
2014-Oct-18 23:33N 51°56' E 004°03'0 0.0
2014-Oct-18 22:33N 51°56' E 004°03'0 0.0
2014-Oct-18 21:33N 51°56' E 004°03'0 0.0
2014-Oct-18 20:33N 51°56' E 004°03'0 0.0
2014-Oct-18 19:33N 51°56' E 004°03'0 0.0
2014-Oct-18 18:33N 51°56' E 004°03'0 0.0
2014-Oct-18 17:33N 51°56' E 004°03'0 0.0
2014-Oct-18 16:33N 51°56' E 004°03'0 0.0
2014-Oct-18 15:33N 51°56' E 004°03'0 0.0
2014-Oct-18 14:33N 51°56' E 004°03'0 0.0
2014-Oct-18 13:33N 51°56' E 004°03'0 0.0
2014-Oct-18 12:33N 51°56' E 004°03'0 0.0
2014-Oct-18 11:33N 51°56' E 004°03'2 2.1
2014-Oct-18 10:33N 51°56' E 004°07'6 6.5
2014-Oct-18 09:33N 51°52' E 004°15'6 6.4
2014-Oct-18 08:33N 51°51' E 004°25'7 7.3
2014-Oct-18 07:33N 51°48' E 004°36'6 6.1
2014-Oct-18 06:33N 51°42' E 004°35'6 5.6
2014-Oct-18 05:30N 51°42' E 004°25'0 0.2
2014-Oct-18 04:31N 51°42' E 004°25'0 0.0
2014-Oct-18 03:33N 51°42' E 004°25'0 0.0
2014-Oct-18 02:25N 51°42' E 004°25'0 0.0
2014-Oct-18 01:32N 51°42' E 004°25'0 0.0
2014-Oct-18 00:33N 51°42' E 004°25'0 0.0
2014-Oct-17 23:33N 51°42' E 004°25'0 0.0
2014-Oct-17 22:32N 51°42' E 004°25'0 0.0
2014-Oct-17 21:32N 51°42' E 004°25'0 0.0
2014-Oct-17 20:32N 51°42' E 004°25'0 0.0
2014-Oct-17 19:33N 51°42' E 004°25'0 0.0
2014-Oct-17 18:32N 51°42' E 004°25'0 0.0
2014-Oct-17 17:33N 51°42' E 004°25'0 0.0
2014-Oct-17 16:33N 51°42' E 004°25'0 0.0
2014-Oct-17 15:33N 51°42' E 004°25'0 0.0
2014-Oct-17 14:32N 51°42' E 004°25'0 0.0
2014-Oct-17 13:31N 51°42' E 004°25'0 0.0
2014-Oct-17 12:33N 51°42' E 004°25'0 0.0
2014-Oct-17 11:33N 51°42' E 004°25'1 0.7
2014-Oct-17 10:25N 51°41' E 004°24'5 5.1
2014-Oct-17 09:31N 51°39' E 004°18'5 5.1
2014-Oct-17 08:33N 51°40' E 004°10'2 1.4
2014-Oct-17 07:19N 51°40' E 004°07'4 5.7
2014-Oct-17 06:33N 51°37' E 004°02'4 3.7
2014-Oct-17 05:33N 51°34' E 003°58'4 4.3
2014-Oct-17 04:33N 51°30' E 004°00'2 1.8
2014-Oct-17 03:33N 51°28' E 004°00'0 0.0
2014-Oct-17 02:33N 51°28' E 004°00'0 0.0
2014-Oct-17 01:33N 51°28' E 004°00'0 0.0
2014-Oct-17 00:33N 51°28' E 004°00'0 0.0
2014-Oct-16 23:33N 51°28' E 004°00'0 0.0
2014-Oct-16 22:33N 51°28' E 004°00'0 0.0
2014-Oct-16 21:33N 51°28' E 004°00'0 0.0
2014-Oct-16 20:33N 51°28' E 004°00'0 0.0
2014-Oct-16 19:33N 51°28' E 004°00'1 1.5
2014-Oct-16 18:33N 51°26' E 004°01'5 5.1
2014-Oct-16 17:29N 51°23' E 003°54'6 6.8
2014-Oct-16 16:33N 51°24' E 003°44'3 3.0
2014-Oct-16 15:33N 51°27' E 003°44'0 0.0
2014-Oct-16 14:33N 51°27' E 003°44'0 0.0
2014-Oct-16 13:33N 51°27' E 003°44'0 0.0
2014-Oct-16 12:33N 51°27' E 003°44'0 0.0
2014-Oct-16 11:33N 51°27' E 003°44'0 0.0
2014-Oct-16 10:33N 51°27' E 003°44'0 0.0
2014-Oct-16 09:33N 51°27' E 003°44'0 0.0
2014-Oct-16 08:33N 51°27' E 003°44'0 0.0
2014-Oct-16 07:33N 51°27' E 003°44'0 0.0
2014-Oct-16 06:33N 51°27' E 003°44'0 0.0
2014-Oct-16 05:33N 51°27' E 003°44'0 0.0
2014-Oct-16 04:33N 51°27' E 003°44'0 0.0
2014-Oct-16 03:33N 51°27' E 003°44'0 0.0
2014-Oct-16 02:33N 51°27' E 003°44'0 0.0
2014-Oct-16 01:33N 51°27' E 003°44'0 0.0
2014-Oct-16 00:33N 51°27' E 003°44'0 0.0
2014-Oct-15 23:33N 51°27' E 003°44'0 0.0
2014-Oct-15 22:33N 51°27' E 003°44'0 0.0
2014-Oct-15 21:33N 51°27' E 003°44'0 0.0
2014-Oct-15 20:33N 51°27' E 003°44'0 0.0
2014-Oct-15 19:33N 51°27' E 003°44'0 0.1
2014-Oct-15 18:33N 51°27' E 003°44'4 4.1
2014-Oct-15 17:33N 51°23' E 003°43'5 5.1
2014-Oct-15 16:34N 51°20' E 003°49'6 6.3
2014-Oct-15 15:33N 51°14' E 003°48'5 5.0
2014-Oct-15 14:33N 51°09' E 003°48'0 0.0
2014-Oct-15 13:33N 51°09' E 003°48'0 0.0
2014-Oct-15 12:34N 51°09' E 003°48'0 0.1
2014-Oct-15 11:34N 51°09' E 003°48'0 0.0
2014-Oct-15 10:33N 51°09' E 003°48'0 0.1
2014-Oct-15 09:33N 51°09' E 003°48'0 0.0
2014-Oct-15 08:21N 51°09' E 003°48'0 0.0
2014-Oct-15 07:29N 51°09' E 003°48'0 0.2
2014-Oct-15 06:33N 51°09' E 003°48'0 0.0
2014-Oct-15 05:34N 51°09' E 003°48'0 0.0
2014-Oct-15 04:33N 51°09' E 003°48'0 0.0
2014-Oct-15 03:34N 51°09' E 003°48'0 0.0
2014-Oct-15 02:34N 51°09' E 003°48'0 0.0
2014-Oct-15 01:34N 51°09' E 003°48'0 0.0
2014-Oct-15 00:33N 51°09' E 003°48'0 0.0
2014-Oct-14 23:33N 51°09' E 003°48'0 0.0
2014-Oct-14 22:33N 51°09' E 003°48'0 0.0
2014-Oct-14 21:33N 51°09' E 003°48'0 0.0
2014-Oct-14 20:34N 51°09' E 003°48'0 0.0
2014-Oct-14 19:34N 51°09' E 003°48'0 0.0
2014-Oct-14 18:34N 51°09' E 003°48'0 0.0
2014-Oct-14 17:34N 51°09' E 003°48'0 0.0
2014-Oct-14 16:34N 51°09' E 003°48'0 0.0
2014-Oct-14 15:34N 51°09' E 003°48'0 0.0
2014-Oct-14 14:33N 51°09' E 003°48'0 0.0
2014-Oct-14 13:34N 51°09' E 003°48'0 0.0
2014-Oct-14 12:33N 51°09' E 003°48'0 0.0
2014-Oct-14 11:34N 51°09' E 003°48'0 0.0
2014-Oct-14 10:33N 51°09' E 003°48'0 0.0
2014-Oct-14 09:33N 51°09' E 003°48'0 0.0
2014-Oct-14 08:34N 51°09' E 003°48'0 0.0
2014-Oct-14 07:34N 51°09' E 003°48'0 0.0
2014-Oct-14 06:34N 51°09' E 003°48'0 0.0
2014-Oct-14 05:33N 51°09' E 003°48'0 0.0
2014-Oct-14 04:33N 51°09' E 003°48'0 0.0
2014-Oct-14 03:33N 51°09' E 003°48'0 0.0
2014-Oct-14 02:33N 51°09' E 003°48'0 0.0
2014-Oct-14 01:33N 51°09' E 003°48'0 0.0
2014-Oct-14 00:33N 51°09' E 003°48'0 0.0
2014-Oct-13 23:33N 51°09' E 003°48'0 0.0
2014-Oct-13 22:33N 51°09' E 003°48'0 0.0
2014-Oct-13 21:33N 51°09' E 003°48'0 0.0
2014-Oct-13 20:34N 51°09' E 003°48'0 0.0
2014-Oct-13 19:34N 51°09' E 003°48'0 0.0
2014-Oct-13 18:33N 51°09' E 003°48'0 0.0
2014-Oct-13 17:33N 51°09' E 003°48'0 0.0
2014-Oct-13 16:33N 51°09' E 003°48'0 0.0
2014-Oct-13 15:33N 51°09' E 003°48'0 0.0
2014-Oct-13 14:34N 51°09' E 003°48'0 0.0
2014-Oct-13 13:33N 51°09' E 003°48'0 0.1
2014-Oct-13 12:33N 51°09' E 003°47'3 2.7
2014-Oct-13 11:33N 51°11' E 003°48'6 5.9
2014-Oct-13 10:30N 51°17' E 003°50'2 2.4
2014-Oct-13 09:31N 51°20' E 003°49'6 5.8
2014-Oct-13 08:33N 51°23' E 003°56'5 5.1
2014-Oct-13 07:33N 51°27' E 004°01'4 4.4
2014-Oct-13 06:33N 51°32' E 004°00'6 5.1
2014-Oct-13 05:25N 51°37' E 004°03'5 5.2
2014-Oct-13 04:31N 51°40' E 004°10'1 0.7
2014-Oct-13 03:33N 51°40' E 004°11'0 0.0
2014-Oct-13 02:33N 51°40' E 004°11'0 0.0
2014-Oct-13 01:32N 51°40' E 004°11'0 0.0
2014-Oct-13 00:26N 51°40' E 004°11'1 1.3
2014-Oct-12 23:33N 51°39' E 004°12'6 6.3
2014-Oct-12 22:31N 51°40' E 004°23'3 3.4
2014-Oct-12 21:31N 51°42' E 004°28'6 6.7
2014-Oct-12 20:33N 51°43' E 004°38'7 6.5
2014-Oct-12 19:33N 51°47' E 004°46'7 6.9
2014-Oct-12 18:33N 51°50' E 004°56'7 7.1
2014-Oct-12 17:33N 51°49' E 005°07'8 7.7
2014-Oct-12 16:33N 51°49' E 005°20'7 7.2
2014-Oct-12 15:33N 51°53' E 005°29'9 8.2
2014-Oct-12 14:24N 51°53' E 005°44'47 5.9
2014-Oct-12 06:30N 51°22' E 006°40'6 6.7
2014-Oct-12 05:33N 51°16' E 006°42'5 5.4
2014-Oct-12 04:33N 51°11' E 006°45'5 4.8
2014-Oct-12 03:33N 51°08' E 006°51'14 6.8
2014-Oct-12 01:33N 50°55' E 006°58'  

Dump ship's entire track history